createdAt,value
2018-07-03T00:00:14.841Z,22.70
2018-07-03T00:02:43.617Z,19.70
2018-07-03T00:05:12.401Z,17.40
2018-07-03T00:07:41.133Z,17.60
2018-07-03T00:10:10.633Z,18.33
2018-07-03T00:12:39.742Z,18.43
2018-07-03T00:15:08.818Z,17.57
2018-07-03T00:17:37.570Z,19.03
2018-07-03T00:20:07.844Z,18.20
2018-07-03T00:22:36.593Z,19.63
2018-07-03T00:25:05.452Z,17.43
2018-07-03T00:27:34.383Z,16.97
2018-07-03T00:30:04.674Z,17.00
2018-07-03T00:32:33.405Z,20.13
2018-07-03T00:35:02.155Z,16.77
2018-07-03T00:37:30.921Z,16.00
2018-07-03T00:39:59.633Z,18.17
2018-07-03T00:42:28.342Z,17.33
2018-07-03T00:44:57.090Z,15.67
2018-07-03T00:47:25.881Z,16.63
2018-07-03T00:49:54.640Z,19.27
2018-07-03T00:52:23.381Z,18.40
2018-07-03T00:54:52.116Z,19.93
2018-07-03T00:57:20.905Z,19.43
2018-07-03T01:00:00.629Z,20.53
2018-07-03T01:02:29.413Z,21.63
2018-07-03T01:04:58.142Z,18.33
2018-07-03T01:07:27.117Z,20.13
2018-07-03T01:09:55.902Z,20.43
2018-07-03T01:12:24.748Z,19.17
2018-07-03T01:14:53.542Z,17.43
2018-07-03T01:17:22.515Z,16.27
2018-07-03T01:19:51.401Z,16.27
2018-07-03T01:22:20.580Z,16.60
2018-07-03T01:24:49.319Z,16.40
2018-07-03T01:27:18.079Z,18.97
2018-07-03T01:29:46.830Z,16.67
2018-07-03T01:32:15.570Z,17.23
2018-07-03T01:34:44.325Z,17.70
2018-07-03T01:37:13.141Z,17.70
2018-07-03T01:39:41.991Z,17.30
2018-07-03T01:42:10.731Z,17.33
2018-07-03T01:44:39.493Z,17.03
2018-07-03T01:47:08.230Z,16.87
2018-07-03T01:49:37.048Z,18.30
2018-07-03T01:52:05.922Z,18.63
2018-07-03T01:54:34.716Z,16.70
2018-07-03T01:57:03.517Z,16.33
2018-07-03T01:59:32.275Z,15.43
2018-07-03T02:02:01.011Z,16.07
2018-07-03T02:04:29.785Z,16.10
2018-07-03T02:06:58.527Z,16.77
2018-07-03T02:09:27.291Z,16.80
2018-07-03T02:11:56.065Z,17.43
2018-07-03T02:14:24.840Z,17.13
2018-07-03T02:16:53.652Z,16.03
2018-07-03T02:19:22.389Z,16.33
2018-07-03T02:21:51.314Z,17.17
2018-07-03T02:24:20.114Z,18.63
2018-07-03T02:26:49.299Z,17.83
2018-07-03T02:29:18.065Z,18.23
2018-07-03T02:31:46.810Z,18.03
2018-07-03T02:34:15.537Z,17.70
2018-07-03T02:36:44.263Z,19.03
2018-07-03T02:39:13.729Z,18.00
2018-07-03T02:41:42.653Z,18.70
2018-07-03T02:44:11.389Z,18.20
2018-07-03T02:46:40.203Z,17.73
2018-07-03T02:49:09.009Z,18.60
2018-07-03T02:51:37.750Z,18.90
2018-07-03T02:54:06.545Z,18.30
2018-07-03T02:56:35.255Z,18.43
2018-07-03T02:59:04.083Z,18.73
2018-07-03T03:01:32.828Z,18.20
2018-07-03T03:04:01.640Z,17.97
2018-07-03T03:06:30.374Z,17.20
2018-07-03T03:08:59.103Z,17.37
2018-07-03T03:11:27.831Z,17.90
2018-07-03T03:13:57.281Z,18.67
2018-07-03T03:16:26.012Z,18.00
2018-07-03T03:18:54.758Z,18.13
2018-07-03T03:21:23.905Z,17.93
2018-07-03T03:23:52.664Z,17.43
2018-07-03T03:26:21.444Z,18.00
2018-07-03T03:28:50.307Z,17.63
2018-07-03T03:31:19.163Z,17.90
2018-07-03T03:33:47.893Z,18.13
2018-07-03T03:36:16.726Z,18.20
2018-07-03T03:38:45.545Z,18.70
2018-07-03T03:41:14.341Z,18.70
2018-07-03T03:43:43.646Z,19.50
2018-07-03T03:46:12.386Z,18.33
2018-07-03T03:48:41.176Z,18.70
2018-07-03T03:51:10.034Z,19.10
2018-07-03T03:53:38.797Z,18.77
2018-07-03T03:56:07.561Z,18.70
2018-07-03T03:58:36.396Z,20.43
2018-07-03T04:01:05.225Z,18.57
2018-07-03T04:03:34.004Z,19.17
2018-07-03T04:06:02.798Z,18.90
2018-07-03T04:08:31.999Z,19.13
2018-07-03T04:11:00.855Z,19.23
2018-07-03T04:13:29.593Z,19.57
2018-07-03T04:15:58.363Z,19.83
2018-07-03T04:18:32.068Z,19.07
2018-07-03T04:21:01.809Z,19.53
2018-07-03T04:23:30.874Z,18.93
2018-07-03T04:26:00.189Z,23.50
2018-07-03T04:28:29.176Z,19.10
2018-07-03T04:30:57.864Z,20.40
2018-07-03T04:33:26.844Z,22.60
2018-07-03T04:35:55.699Z,21.80
2018-07-03T04:38:24.480Z,20.30
2018-07-03T04:40:53.408Z,20.30
2018-07-03T04:43:22.142Z,21.33
2018-07-03T04:45:50.937Z,22.17
2018-07-03T04:48:19.730Z,33.73
2018-07-03T04:50:48.514Z,25.63
2018-07-03T04:53:17.288Z,23.10
2018-07-03T04:55:46.358Z,21.03
2018-07-03T04:58:15.068Z,19.67
2018-07-03T05:00:43.856Z,18.10
2018-07-03T05:03:12.643Z,16.93
2018-07-03T05:05:41.853Z,16.83
2018-07-03T05:08:10.655Z,17.33
2018-07-03T05:10:39.422Z,16.63
2018-07-03T05:13:08.125Z,17.53
2018-07-03T05:15:36.995Z,17.87
2018-07-03T05:18:07.241Z,16.97
2018-07-03T05:20:35.994Z,17.27
2018-07-03T05:23:04.786Z,16.83
2018-07-03T05:25:33.534Z,18.33
2018-07-03T05:28:02.298Z,17.30
2018-07-03T05:30:31.049Z,17.83
2018-07-03T05:33:00.128Z,18.97
2018-07-03T05:35:29.006Z,18.57
2018-07-03T05:37:57.887Z,18.50
2018-07-03T05:40:26.746Z,17.03
2018-07-03T05:42:55.509Z,17.70
2018-07-03T05:45:24.592Z,16.20
2018-07-03T05:47:53.387Z,16.90
2018-07-03T05:50:22.174Z,16.03
2018-07-03T05:52:50.943Z,15.80
2018-07-03T05:55:19.703Z,16.40
2018-07-03T05:57:48.459Z,16.80
2018-07-03T06:00:17.227Z,16.60
2018-07-03T06:02:45.986Z,16.83
2018-07-03T06:05:14.796Z,15.53
2018-07-03T06:07:43.675Z,17.40
2018-07-03T06:10:12.469Z,17.23
2018-07-03T06:12:41.225Z,17.17
2018-07-03T06:15:10.013Z,19.20
2018-07-03T06:17:39.003Z,18.27
2018-07-03T06:20:09.998Z,16.70
2018-07-03T06:22:38.725Z,16.13
2018-07-03T06:25:07.491Z,16.50
2018-07-03T06:27:37.214Z,18.17
2018-07-03T06:30:07.332Z,18.20
2018-07-03T06:32:36.183Z,17.10
2018-07-03T06:35:05.286Z,16.57
2018-07-03T06:37:34.885Z,17.07
2018-07-03T06:40:04.303Z,17.43
2018-07-03T06:42:33.051Z,17.60
2018-07-03T06:45:01.868Z,16.47
2018-07-03T06:47:30.981Z,17.90
2018-07-03T06:49:59.838Z,17.37
2018-07-03T06:52:28.579Z,16.40
2018-07-03T06:54:57.324Z,18.10
2018-07-03T06:57:26.105Z,17.63
2018-07-03T06:59:54.874Z,17.17
2018-07-03T07:02:23.856Z,18.40
2018-07-03T07:04:52.944Z,16.73
2018-07-03T07:07:38.038Z,18.10
2018-07-03T07:10:23.225Z,18.57
2018-07-03T07:12:52.025Z,19.27
2018-07-03T07:15:20.769Z,18.23
2018-07-03T07:17:50.195Z,19.93
2018-07-03T07:20:18.975Z,21.17
2018-07-03T07:22:47.719Z,22.60
2018-07-03T07:25:16.450Z,19.53
2018-07-03T07:27:45.301Z,19.40
2018-07-03T07:30:14.953Z,19.80
2018-07-03T07:32:43.715Z,20.03
2018-07-03T07:35:12.505Z,20.77
2018-07-03T07:37:41.573Z,20.17
2018-07-03T07:40:10.352Z,19.70
2018-07-03T07:42:39.087Z,19.70
2018-07-03T07:45:08.242Z,20.57
2018-07-03T07:47:37.381Z,18.60
2018-07-03T07:50:06.379Z,17.87
2018-07-03T07:52:35.215Z,19.57
2018-07-03T07:55:04.058Z,18.20
2018-07-03T07:57:32.894Z,16.80
2018-07-03T08:00:01.753Z,19.10
2018-07-03T08:02:30.536Z,17.40
2018-07-03T08:04:59.260Z,18.67
2018-07-03T08:07:28.914Z,18.67
2018-07-03T08:09:57.674Z,18.03
2018-07-03T08:12:26.395Z,18.50
2018-07-03T08:14:55.132Z,26.50
2018-07-03T08:17:23.921Z,18.23
2018-07-03T08:19:52.738Z,18.73
2018-07-03T08:22:21.498Z,19.63
2018-07-03T08:24:50.257Z,18.80
2018-07-03T08:27:19.046Z,18.33
2018-07-03T08:29:47.834Z,17.83
2018-07-03T08:32:16.640Z,21.73
2018-07-03T08:34:45.559Z,18.30
2018-07-03T08:37:14.275Z,19.07
2018-07-03T08:39:43.039Z,18.97
2018-07-03T08:42:11.871Z,18.33
2018-07-03T08:44:41.642Z,18.23
2018-07-03T08:47:10.426Z,18.47
2018-07-03T08:49:39.279Z,22.67
2018-07-03T08:52:08.050Z,19.03
2018-07-03T08:54:36.894Z,18.07
2018-07-03T08:57:06.046Z,17.47
2018-07-03T08:59:34.886Z,17.30
2018-07-03T09:02:03.687Z,20.17
2018-07-03T09:04:32.475Z,18.03
2018-07-03T09:07:01.247Z,17.90
2018-07-03T09:09:30.108Z,16.73
2018-07-03T09:11:58.927Z,16.27
2018-07-03T09:14:27.753Z,16.13
2018-07-03T09:16:56.506Z,16.87
2018-07-03T09:19:25.468Z,17.03
2018-07-03T09:21:54.318Z,15.90
2018-07-03T09:24:23.169Z,14.27
2018-07-03T09:26:51.969Z,16.37
2018-07-03T09:29:20.764Z,16.13
2018-07-03T09:31:49.529Z,16.70
2018-07-03T09:34:18.253Z,13.33
2018-07-03T09:36:47.731Z,14.97
2018-07-03T09:39:16.516Z,14.87
2018-07-03T09:41:45.341Z,15.00
2018-07-03T09:44:14.123Z,14.93
2018-07-03T09:46:43.477Z,16.40
2018-07-03T09:49:12.186Z,15.67
2018-07-03T09:51:40.960Z,15.03
2018-07-03T09:54:09.672Z,14.47
2018-07-03T09:56:38.419Z,14.43
2018-07-03T09:59:08.099Z,15.30
2018-07-03T10:01:36.834Z,14.73
2018-07-03T10:04:05.651Z,15.40
2018-07-03T10:06:34.406Z,15.37
2018-07-03T10:09:04.222Z,13.73
2018-07-03T10:11:32.994Z,12.53
2018-07-03T10:14:01.957Z,11.77
2018-07-03T10:16:30.934Z,12.33
2018-07-03T10:19:00.057Z,12.60
2018-07-03T10:21:28.911Z,11.50
2018-07-03T10:23:57.809Z,11.87
2018-07-03T10:26:26.591Z,13.13
2018-07-03T10:28:55.450Z,12.80
2018-07-03T10:31:24.403Z,12.83
2018-07-03T10:33:53.402Z,12.63
2018-07-03T10:36:22.164Z,11.50
2018-07-03T10:38:50.895Z,10.80
2018-07-03T10:41:20.093Z,11.57
2018-07-03T10:43:48.830Z,12.13
2018-07-03T10:46:17.609Z,12.80
2018-07-03T10:48:46.430Z,12.53
2018-07-03T10:51:15.332Z,13.23
2018-07-03T10:53:44.199Z,11.10
2018-07-03T10:56:12.975Z,10.87
2018-07-03T10:58:41.760Z,11.97
2018-07-03T11:01:10.598Z,11.60
2018-07-03T11:03:39.358Z,11.20
2018-07-03T11:06:08.168Z,11.17
2018-07-03T11:08:37.246Z,11.57
2018-07-03T11:11:06.103Z,10.80
2018-07-03T11:13:35.000Z,11.43
2018-07-03T11:16:03.806Z,11.40
2018-07-03T11:18:32.585Z,12.07
2018-07-03T11:21:01.581Z,11.67
2018-07-03T11:23:30.791Z,11.70
2018-07-03T11:25:59.669Z,12.63
2018-07-03T11:28:28.429Z,12.27
2018-07-03T11:30:57.599Z,11.13
2018-07-03T11:33:26.460Z,13.30
2018-07-03T11:35:55.210Z,12.50
2018-07-03T11:38:24.004Z,11.60
2018-07-03T11:40:53.776Z,11.80
2018-07-03T11:43:24.680Z,11.90
2018-07-03T11:45:53.455Z,11.87
2018-07-03T11:48:22.318Z,11.77
2018-07-03T11:50:51.099Z,12.00
2018-07-03T11:53:19.877Z,11.57
2018-07-03T11:55:48.667Z,11.53
2018-07-03T11:58:17.470Z,11.50
2018-07-03T12:00:46.239Z,11.70
2018-07-03T12:03:14.997Z,11.60
2018-07-03T12:05:43.791Z,11.70
2018-07-03T12:08:12.595Z,12.20
2018-07-03T12:10:41.378Z,11.90
2018-07-03T12:13:10.401Z,11.43
2018-07-03T12:15:39.214Z,12.17
2018-07-03T12:18:12.132Z,11.20
2018-07-03T12:20:40.968Z,11.70
2018-07-03T12:23:09.740Z,10.80
2018-07-03T12:25:38.541Z,11.63
2018-07-03T12:28:07.648Z,11.53
2018-07-03T12:30:36.429Z,10.47
2018-07-03T12:33:05.297Z,11.07
2018-07-03T12:35:34.057Z,11.03
2018-07-03T12:38:03.084Z,9.90
2018-07-03T12:40:31.859Z,10.17
2018-07-03T12:43:00.636Z,10.07
2018-07-03T12:45:29.485Z,9.93
2018-07-03T12:47:58.902Z,10.37
2018-07-03T12:50:27.777Z,10.00
2018-07-03T12:52:56.601Z,10.83
2018-07-03T12:55:25.403Z,11.00
2018-07-03T12:57:54.218Z,10.30
2018-07-03T13:00:23.043Z,10.83
2018-07-03T13:02:52.171Z,11.63
2018-07-03T13:05:21.081Z,12.03
2018-07-03T13:07:50.360Z,10.87
2018-07-03T13:10:19.112Z,10.07
2018-07-03T13:12:47.948Z,9.93
2018-07-03T13:15:16.773Z,10.60
2018-07-03T13:17:45.710Z,10.90
2018-07-03T13:20:14.861Z,11.10
2018-07-03T13:22:43.550Z,14.67
2018-07-03T13:25:13.253Z,10.70
2018-07-03T13:27:41.992Z,10.60
2018-07-03T13:30:11.622Z,10.90
2018-07-03T13:32:40.722Z,10.80
2018-07-03T13:35:10.792Z,11.13
2018-07-03T13:37:39.558Z,10.67
2018-07-03T13:40:09.442Z,10.90
2018-07-03T13:42:38.221Z,10.50
2018-07-03T13:45:07.401Z,10.83
2018-07-03T13:47:36.117Z,10.70
2018-07-03T13:50:05.615Z,11.27
2018-07-03T13:52:34.393Z,10.97
2018-07-03T13:55:03.200Z,10.23
2018-07-03T13:57:32.830Z,9.90
2018-07-03T14:00:01.628Z,9.60
2018-07-03T14:02:30.430Z,9.83
2018-07-03T14:04:59.270Z,9.80
2018-07-03T14:07:28.089Z,9.77
2018-07-03T14:09:56.919Z,9.27
2018-07-03T14:12:25.682Z,8.90
2018-07-03T14:14:54.434Z,9.30
2018-07-03T14:17:23.529Z,10.10
2018-07-03T14:19:52.372Z,9.77
2018-07-03T14:22:21.083Z,9.17
2018-07-03T14:24:49.844Z,10.33
2018-07-03T14:27:18.673Z,9.30
2018-07-03T14:29:47.536Z,9.43
2018-07-03T14:32:16.347Z,9.23
2018-07-03T14:34:45.088Z,10.20
2018-07-03T14:37:14.258Z,10.00
2018-07-03T14:39:43.037Z,9.73
2018-07-03T14:42:11.799Z,9.53
2018-07-03T14:44:40.672Z,10.17
2018-07-03T14:47:09.461Z,9.87
2018-07-03T14:49:38.261Z,9.40
2018-07-03T14:52:07.092Z,9.63
2018-07-03T14:54:35.873Z,9.37
2018-07-03T14:57:04.712Z,9.80
2018-07-03T14:59:33.410Z,9.67
2018-07-03T15:02:02.141Z,8.73
2018-07-03T15:04:30.871Z,9.40
2018-07-03T15:06:59.701Z,9.00
2018-07-03T15:09:28.438Z,8.63
2018-07-03T15:11:57.232Z,9.17
2018-07-03T15:14:26.016Z,8.83
2018-07-03T15:16:54.776Z,9.30
2018-07-03T15:19:28.793Z,9.10
2018-07-03T15:21:58.490Z,9.43
2018-07-03T15:24:28.322Z,8.10
2018-07-03T15:26:57.063Z,7.67
2018-07-03T15:29:25.849Z,8.00
2018-07-03T15:31:55.567Z,8.00
2018-07-03T15:34:24.511Z,8.93
2018-07-03T15:36:53.542Z,9.10
2018-07-03T15:39:22.312Z,9.73
2018-07-03T15:41:51.103Z,10.10
2018-07-03T15:44:30.924Z,10.10
2018-07-03T15:46:59.742Z,9.70
2018-07-03T15:49:28.527Z,9.70
2018-07-03T15:51:57.348Z,9.73
2018-07-03T15:54:26.150Z,9.43
2018-07-03T15:56:54.997Z,9.00
2018-07-03T15:59:23.882Z,10.10
2018-07-03T16:01:52.614Z,9.50
2018-07-03T16:05:34.845Z,9.80
2018-07-03T16:09:12.966Z,8.93
2018-07-03T16:11:41.983Z,9.67
2018-07-03T16:14:12.807Z,9.60
2018-07-03T16:16:41.821Z,10.40
2018-07-03T16:19:15.825Z,10.57
2018-07-03T16:21:45.055Z,10.87
2018-07-03T16:24:13.887Z,10.40
2018-07-03T16:26:42.658Z,9.83
2018-07-03T16:29:12.478Z,10.50
2018-07-03T16:31:41.579Z,10.40
2018-07-03T16:34:10.364Z,10.40
2018-07-03T16:36:39.108Z,12.10
2018-07-03T16:39:10.770Z,11.30
2018-07-03T16:41:40.054Z,10.43
2018-07-03T16:44:09.527Z,10.17
2018-07-03T16:46:38.320Z,10.07
2018-07-03T16:49:07.153Z,10.00
2018-07-03T16:51:36.491Z,10.67
2018-07-03T16:54:05.280Z,10.23
2018-07-03T16:56:34.043Z,10.50
2018-07-03T16:59:02.781Z,10.27
2018-07-03T17:01:31.546Z,10.20
2018-07-03T17:04:00.413Z,11.07
2018-07-03T17:06:29.421Z,9.63
2018-07-03T17:08:58.209Z,10.43
2018-07-03T17:11:27.023Z,10.40
2018-07-03T17:13:55.915Z,10.37
2018-07-03T17:16:24.803Z,10.70
2018-07-03T17:18:58.842Z,10.50
2018-07-03T17:21:27.700Z,10.97
2018-07-03T17:23:56.425Z,11.60
2018-07-03T17:26:25.181Z,12.30
2018-07-03T17:28:54.111Z,13.23
2018-07-03T17:31:22.907Z,13.73
2018-07-03T17:33:51.796Z,14.13
2018-07-03T17:36:20.834Z,13.90
2018-07-03T17:38:49.591Z,13.40
2018-07-03T17:41:29.439Z,13.57
2018-07-03T17:44:13.621Z,14.37
2018-07-03T17:46:42.727Z,14.13
2018-07-03T17:49:11.866Z,13.73
2018-07-03T17:51:40.702Z,14.50
2018-07-03T17:54:09.507Z,14.00
2018-07-03T17:56:38.646Z,14.93
2018-07-03T17:59:07.463Z,14.53
2018-07-03T18:01:36.194Z,14.50
2018-07-03T18:04:05.278Z,15.50
2018-07-03T18:06:36.933Z,15.37
2018-07-03T18:09:09.172Z,15.17
2018-07-03T18:11:38.052Z,15.53
2018-07-03T18:14:07.586Z,18.10
2018-07-03T18:16:36.316Z,18.63
2018-07-03T18:19:10.945Z,17.40
2018-07-03T18:21:39.754Z,15.83
2018-07-03T18:24:08.592Z,15.60
2018-07-03T18:26:37.371Z,15.90
2018-07-03T18:29:06.141Z,15.27
2018-07-03T18:31:34.983Z,15.50
2018-07-03T18:34:03.727Z,14.97
2018-07-03T18:36:32.543Z,17.23
2018-07-03T18:39:01.328Z,16.80
2018-07-03T18:41:30.092Z,17.67
2018-07-03T18:43:59.090Z,18.13
2018-07-03T18:46:27.964Z,17.73
2018-07-03T18:48:57.345Z,18.40
2018-07-03T18:51:26.173Z,19.23
2018-07-03T18:53:54.913Z,18.67
2018-07-03T18:56:23.704Z,19.47
2018-07-03T18:58:52.436Z,19.97
2018-07-03T19:01:21.214Z,20.53
2018-07-03T19:03:50.508Z,20.07
2018-07-03T19:06:19.315Z,19.03
2018-07-03T19:08:48.131Z,17.60
2018-07-03T19:11:16.917Z,18.37
2018-07-03T19:13:45.751Z,18.17
2018-07-03T19:16:14.534Z,18.63
2018-07-03T19:18:43.305Z,19.13
2018-07-03T19:21:12.529Z,18.97
2018-07-03T19:23:41.298Z,19.97
2018-07-03T19:26:10.476Z,17.53
2018-07-03T19:28:39.308Z,18.77
2018-07-03T19:31:08.198Z,17.27
2018-07-03T19:33:36.996Z,19.10
2018-07-03T19:36:05.853Z,20.60
2018-07-03T19:38:34.854Z,22.43
2018-07-03T19:41:03.650Z,19.73
2018-07-03T19:43:34.969Z,21.70
2018-07-03T19:46:04.513Z,20.73
2018-07-03T19:48:33.765Z,21.17
2018-07-03T19:51:02.535Z,20.93
2018-07-03T19:53:31.552Z,20.87
2018-07-03T19:56:00.938Z,20.30
2018-07-03T19:58:29.673Z,19.97
2018-07-03T20:00:58.422Z,20.63
2018-07-03T20:03:27.234Z,19.97
2018-07-03T20:05:55.993Z,21.00
2018-07-03T20:08:24.792Z,20.70
2018-07-03T20:10:53.562Z,20.20
2018-07-03T20:13:22.375Z,20.50
2018-07-03T20:15:51.133Z,21.33
2018-07-03T20:18:19.961Z,22.03
2018-07-03T20:20:48.752Z,20.57
2018-07-03T20:23:17.607Z,20.27
2018-07-03T20:25:46.369Z,20.23
2018-07-03T20:28:15.145Z,20.73
2018-07-03T20:30:43.898Z,20.23
2018-07-03T20:33:12.701Z,21.43
2018-07-03T20:35:41.449Z,20.80
2018-07-03T20:38:11.941Z,20.93
2018-07-03T20:41:00.330Z,19.70
2018-07-03T20:43:30.373Z,20.57
2018-07-03T20:45:59.567Z,22.47
2018-07-03T20:48:28.822Z,20.33
2018-07-03T20:50:58.272Z,21.43
2018-07-03T20:53:27.012Z,18.37
2018-07-03T20:55:56.068Z,19.50
2018-07-03T20:58:25.079Z,20.60
2018-07-03T21:00:53.927Z,21.07
2018-07-03T21:03:22.705Z,20.70
2018-07-03T21:05:51.612Z,20.57
2018-07-03T21:08:20.512Z,20.87
2018-07-03T21:10:49.301Z,20.73
2018-07-03T21:13:18.053Z,19.17
2018-07-03T21:15:46.945Z,19.53
2018-07-03T21:18:15.651Z,17.43
2018-07-03T21:20:44.404Z,18.10
2018-07-03T21:23:13.149Z,19.20
2018-07-03T21:25:41.894Z,18.73
2018-07-03T21:28:10.711Z,19.83
2018-07-03T21:30:39.545Z,19.67
2018-07-03T21:33:08.250Z,19.70
2018-07-03T21:35:36.973Z,21.13
2018-07-03T21:38:05.748Z,20.63
2018-07-03T21:40:34.528Z,21.43
2018-07-03T21:43:03.313Z,22.30
2018-07-03T21:45:32.078Z,22.40
2018-07-03T21:48:00.878Z,21.83
2018-07-03T21:50:29.637Z,21.90
2018-07-03T21:52:58.387Z,21.27
2018-07-03T21:55:27.101Z,23.10
2018-07-03T21:57:55.862Z,21.47
2018-07-03T22:00:31.500Z,22.17
2018-07-03T22:03:00.274Z,22.23
2018-07-03T22:05:29.062Z,22.13
2018-07-03T22:07:57.797Z,21.70
2018-07-03T22:10:26.530Z,22.60
2018-07-03T22:12:55.352Z,21.13
2018-07-03T22:15:24.119Z,21.53
2018-07-03T22:17:52.905Z,21.80
2018-07-03T22:20:21.649Z,21.07
2018-07-03T22:22:50.430Z,20.97
2018-07-03T22:25:19.173Z,21.03
2018-07-03T22:27:47.978Z,21.43
2018-07-03T22:30:17.074Z,21.67
2018-07-03T22:32:45.861Z,21.03
2018-07-03T22:35:14.614Z,21.63
2018-07-03T22:37:43.411Z,21.13
2018-07-03T22:40:12.183Z,21.50
2018-07-03T22:42:40.955Z,22.97
2018-07-03T22:45:09.742Z,23.23
2018-07-03T22:47:38.515Z,22.23
2018-07-03T22:50:07.294Z,22.63
2018-07-03T22:52:36.072Z,22.03
2018-07-03T22:55:05.529Z,22.63
2018-07-03T22:57:34.290Z,22.77
2018-07-03T23:00:04.377Z,23.70
2018-07-03T23:02:33.119Z,22.63
2018-07-03T23:05:01.821Z,24.70
2018-07-03T23:07:30.514Z,23.40
2018-07-03T23:09:59.261Z,24.60
2018-07-03T23:12:28.049Z,23.30
2018-07-03T23:14:56.833Z,23.87
2018-07-03T23:17:25.581Z,24.37
2018-07-03T23:19:54.381Z,23.67
2018-07-03T23:22:23.100Z,23.70
2018-07-03T23:24:51.870Z,25.07
2018-07-03T23:27:20.678Z,24.80
2018-07-03T23:29:49.468Z,23.87
2018-07-03T23:32:18.177Z,23.83
2018-07-03T23:34:46.919Z,27.43
2018-07-03T23:37:15.636Z,25.47
2018-07-03T23:39:44.386Z,25.40
2018-07-03T23:42:13.190Z,25.70
2018-07-03T23:44:41.925Z,25.77
2018-07-03T23:47:21.705Z,25.20
2018-07-03T23:50:02.229Z,24.57
2018-07-03T23:52:42.050Z,26.53
2018-07-03T23:55:21.700Z,25.00
2018-07-03T23:58:01.362Z,24.30
